Hlavní strana
METAR-TAF:

METAR-TAF

Letiště :

Newnan-Coweta County Airport

Newnan, Georgie, Spojené státy americké

zeměpisná šířka: 33-18-44N, zeměpisná délka: 084-46-13W, výška: 296 m

Aktuální stav počasí

Zpráva byla vytvořena před 27 minutami, v 10:55 UTC
Bezvětří
Teplota 23°C
Vlhkost vzduchu 83%
Tlak 1022 hPa
Viditelnost: 16.1 km
Jasno

METAR: KCCO 241055Z AUTO 00000KT 10SM CLR 23/20 A3019 RMK AO2 T02250195

Čas: 07:22 (11:22 UTC)


TAF: chybějící

Stav a předpovědi počasí z více než 4 000 letišť (zprávy METAR a TAF).

Červené a žluté tečky na mapě představují dostupné meteorologické stanice.

Když kurzor umístíte na tečku, zobrazí se název stanice.

Pak kliknutím zobrazíte stav a předpověď počasí.

Chcete-li změnit mapu, kliknutím na zelené tlačítko se znaménkem +mapu přiblížíte, kliknutím na zelené tlačítko se znaménkem – mapu oddálíte a kliknutím na zelené šipky přejdete na sousední mapy.


METAR-TAF: